Time;durP1;ratioP1;P1;durP2;ratioP2;P2;SDS_P1;SDS_P2;PMS_P1;PMS_P2;Temp;Humidity;BMP_temperature;BMP_pressure;BME280_temperature;BME280_humidity;BME280_pressure;Samples;Min_cycle;Max_cycle;Signal;HPM_P1;HPM_P2
2021/07/15 00:00:56;;;;;;;3.20;3.00;;;;;;;;;;5089510;28;24475;-56
2021/07/15 00:03:22;;;;;;;3.20;3.00;;;;;;;;;;5088050;28;24397;-57
2021/07/15 00:05:48;;;;;;;3.38;3.17;;;;;;;;;;5088727;28;24928;-56
2021/07/15 00:08:14;;;;;;;3.60;3.30;;;;;;;;;;5108198;28;24516;-56
2021/07/15 00:10:42;;;;;;;3.73;3.43;;;;;;;;;;5104869;28;24494;-56
2021/07/15 00:13:07;;;;;;;3.30;3.10;;;;;;;;;;5094722;28;24529;-53
2021/07/15 00:15:34;;;;;;;3.60;3.30;;;;;;;;;;5077608;28;24519;-55
2021/07/15 00:17:59;;;;;;;3.90;3.60;;;;;;;;;;5106474;27;24743;-55
2021/07/15 00:20:25;;;;;;;3.90;3.60;;;;;;;;;;5105313;28;24410;-54
2021/07/15 00:22:50;;;;;;;3.77;3.47;;;;;;;;;;5106264;28;24962;-55
2021/07/15 00:25:17;;;;;;;4.00;3.70;;;;;;;;;;5081888;28;24863;-55
2021/07/15 00:27:43;;;;;;;3.70;3.42;;;;;;;;;;5082104;28;24415;-55
2021/07/15 00:30:09;;;;;;;3.93;3.63;;;;;;;;;;5089342;28;24523;-55
2021/07/15 00:32:34;;;;;;;3.90;3.60;;;;;;;;;;5100352;28;24430;-55
2021/07/15 00:35:00;;;;;;;4.00;3.70;;;;;;;;;;5088983;28;24437;-55
2021/07/15 00:37:26;;;;;;;3.10;2.90;;;;;;;;;;5068540;28;24515;-55
2021/07/15 00:39:51;;;;;;;4.05;3.75;;;;;;;;;;5088125;28;24449;-55
2021/07/15 00:42:16;;;;;;;4.32;3.60;;;;;;;;;;5089448;28;24410;-55
2021/07/15 00:44:41;;;;;;;3.70;3.40;;;;;;;;;;5095381;28;24443;-55
2021/07/15 00:47:06;;;;;;;4.20;3.90;;;;;;;;;;5087639;28;25043;-55
2021/07/15 00:49:31;;;;;;;3.77;3.47;;;;;;;;;;5087998;28;24389;-55
2021/07/15 00:51:57;;;;;;;4.05;3.75;;;;;;;;;;5090104;28;24868;-55
2021/07/15 00:54:22;;;;;;;3.60;3.40;;;;;;;;;;5088024;28;24836;-54
2021/07/15 00:56:47;;;;;;;4.13;3.80;;;;;;;;;;5092334;28;24414;-55
2021/07/15 00:59:12;;;;;;;3.90;3.60;;;;;;;;;;5092864;28;24406;-54
2021/07/15 01:01:38;;;;;;;4.10;3.80;;;;;;;;;;5095504;28;24494;-54
2021/07/15 01:04:03;;;;;;;3.53;3.30;;;;;;;;;;5089157;28;24780;-54
2021/07/15 01:06:28;;;;;;;4.10;3.70;;;;;;;;;;5087023;28;24390;-55
2021/07/15 01:08:53;;;;;;;3.90;3.70;;;;;;;;;;5094016;28;24495;-55
2021/07/15 01:11:18;;;;;;;3.50;3.30;;;;;;;;;;5097887;28;24433;-55
2021/07/15 01:13:48;;;;;;;3.40;3.20;;;;;;;;;;5102587;28;24422;-54
2021/07/15 01:16:36;;;;;;;3.50;3.30;;;;;;;;;;5087221;28;24402;-54
2021/07/15 01:19:07;;;;;;;3.50;3.20;;;;;;;;;;5083802;28;25283;-54
2021/07/15 01:21:44;;;;;;;3.38;3.17;;;;;;;;;;5088142;28;24419;-55
2021/07/15 01:24:18;;;;;;;4.40;3.30;;;;;;;;;;5101901;28;24422;-55
2021/07/15 01:27:02;;;;;;;3.70;3.50;;;;;;;;;;5107355;28;25053;-55
2021/07/15 01:29:38;;;;;;;3.70;3.45;;;;;;;;;;5082870;28;24518;-54
2021/07/15 01:32:05;;;;;;;3.83;3.53;;;;;;;;;;5101099;28;24429;-54
2021/07/15 01:34:30;;;;;;;4.63;4.22;;;;;;;;;;5095066;28;24427;-54
2021/07/15 01:36:55;;;;;;;4.30;4.00;;;;;;;;;;5091001;28;24463;-54
2021/07/15 01:39:24;;;;;;;4.70;4.30;;;;;;;;;;5097684;28;24434;-55
2021/07/15 01:41:51;;;;;;;4.50;4.10;;;;;;;;;;5099642;28;24479;-55
2021/07/15 01:44:24;;;;;;;4.35;4.05;;;;;;;;;;5078136;28;24483;-54
2021/07/15 01:46:50;;;;;;;4.72;4.32;;;;;;;;;;5094406;28;24782;-55
2021/07/15 01:49:15;;;;;;;3.42;3.22;;;;;;;;;;5086337;28;25010;-55
2021/07/15 01:51:41;;;;;;;4.40;4.10;;;;;;;;;;5090955;28;24510;-55
2021/07/15 01:54:06;;;;;;;3.70;3.50;;;;;;;;;;5077982;28;24434;-55
2021/07/15 01:56:32;;;;;;;3.55;3.28;;;;;;;;;;5091561;28;24414;-55
2021/07/15 01:58:58;;;;;;;3.90;3.60;;;;;;;;;;5093708;28;24439;-55
2021/07/15 02:01:23;;;;;;;3.10;2.90;;;;;;;;;;5102505;28;24935;-54
2021/07/15 02:03:50;;;;;;;3.10;2.90;;;;;;;;;;5101781;28;25097;-54
2021/07/15 02:06:16;;;;;;;3.15;2.92;;;;;;;;;;5095067;28;24430;-54
2021/07/15 02:08:43;;;;;;;3.10;2.90;;;;;;;;;;5096894;28;24452;-54
2021/07/15 02:11:09;;;;;;;2.60;2.50;;;;;;;;;;5102673;28;24597;-55
2021/07/15 02:13:35;;;;;;;2.90;2.70;;;;;;;;;;5088867;28;24419;-55
2021/07/15 02:16:00;;;;;;;3.60;3.30;;;;;;;;;;5071970;28;25030;-54
2021/07/15 02:18:25;;;;;;;3.00;2.80;;;;;;;;;;5077430;28;24466;-54
2021/07/15 02:20:52;;;;;;;3.20;3.00;;;;;;;;;;5099769;28;24983;-55
2021/07/15 02:23:18;;;;;;;3.00;2.80;;;;;;;;;;5099169;28;24471;-55
2021/07/15 02:25:43;;;;;;;2.60;2.50;;;;;;;;;;5088896;28;24414;-55
2021/07/15 02:28:10;;;;;;;2.60;2.50;;;;;;;;;;5100420;28;25077;-55
2021/07/15 02:30:35;;;;;;;2.42;2.33;;;;;;;;;;5094441;28;24513;-55
2021/07/15 02:33:06;;;;;;;2.47;2.37;;;;;;;;;;5089057;28;24913;-55
2021/07/15 02:35:34;;;;;;;2.58;2.47;;;;;;;;;;5084125;28;24515;-55
2021/07/15 02:38:00;;;;;;;2.90;2.70;;;;;;;;;;5079752;28;24486;-55
2021/07/15 02:40:26;;;;;;;2.72;2.63;;;;;;;;;;5093799;28;24418;-55
2021/07/15 02:42:51;;;;;;;2.70;2.50;;;;;;;;;;5102777;28;24414;-55
2021/07/15 02:45:18;;;;;;;2.70;2.50;;;;;;;;;;5090667;28;24795;-54
2021/07/15 02:47:43;;;;;;;3.40;3.20;;;;;;;;;;5090168;28;24515;-54
2021/07/15 02:50:10;;;;;;;2.90;2.70;;;;;;;;;;5092009;28;24426;-54
2021/07/15 02:52:35;;;;;;;2.50;2.40;;;;;;;;;;5109383;28;24425;-54
2021/07/15 02:55:01;;;;;;;3.00;2.80;;;;;;;;;;5092044;28;24828;-54
2021/07/15 02:57:31;;;;;;;2.23;2.13;;;;;;;;;;5095675;28;24417;-55
2021/07/15 03:00:09;;;;;;;2.72;2.63;;;;;;;;;;5085104;28;24422;-55
2021/07/15 03:02:53;;;;;;;2.90;2.60;;;;;;;;;;5089614;28;24411;-55
2021/07/15 03:05:26;;;;;;;2.90;2.70;;;;;;;;;;5108904;28;24763;-54
2021/07/15 03:08:03;;;;;;;2.80;2.60;;;;;;;;;;5076347;28;24418;-54
2021/07/15 03:10:29;;;;;;;3.38;3.17;;;;;;;;;;5071894;28;24430;-54
2021/07/15 03:12:54;;;;;;;3.20;3.00;;;;;;;;;;5084586;28;24422;-54
2021/07/15 03:15:20;;;;;;;2.83;2.67;;;;;;;;;;5072126;28;24491;-54
2021/07/15 03:17:49;;;;;;;3.20;3.00;;;;;;;;;;5081190;28;24431;-54
2021/07/15 03:20:16;;;;;;;2.63;2.53;;;;;;;;;;5087989;28;25002;-54
2021/07/15 03:22:43;;;;;;;2.88;2.67;;;;;;;;;;5071575;28;24434;-55
2021/07/15 03:25:13;;;;;;;2.80;2.60;;;;;;;;;;5081440;28;24430;-55
2021/07/15 03:27:40;;;;;;;2.90;2.70;;;;;;;;;;5076439;28;24418;-55
2021/07/15 03:30:06;;;;;;;3.05;2.85;;;;;;;;;;5076234;28;24981;-55
2021/07/15 03:32:32;;;;;;;2.80;2.60;;;;;;;;;;5088019;28;24519;-55
2021/07/15 03:34:57;;;;;;;2.50;2.40;;;;;;;;;;5083815;28;24491;-55
2021/07/15 03:37:23;;;;;;;2.90;2.70;;;;;;;;;;5080675;28;24449;-55
2021/07/15 03:39:49;;;;;;;2.90;2.70;;;;;;;;;;5086996;28;24403;-55
2021/07/15 03:42:16;;;;;;;2.70;2.50;;;;;;;;;;5094332;28;24408;-55
2021/07/15 03:44:41;;;;;;;2.90;2.80;;;;;;;;;;5106173;28;24432;-55
2021/07/15 03:47:06;;;;;;;3.20;2.80;;;;;;;;;;5088288;28;24936;-54
2021/07/15 03:49:32;;;;;;;3.00;2.80;;;;;;;;;;5074962;28;24511;-54
2021/07/15 03:51:57;;;;;;;3.00;2.80;;;;;;;;;;5084978;28;24426;-55
2021/07/15 03:54:23;;;;;;;2.80;2.60;;;;;;;;;;5087246;28;24820;-55
2021/07/15 03:56:49;;;;;;;3.30;3.10;;;;;;;;;;5095705;28;24494;-54
2021/07/15 03:59:16;;;;;;;3.10;2.90;;;;;;;;;;5086874;28;25017;-55
2021/07/15 04:01:42;;;;;;;3.30;3.00;;;;;;;;;;5086193;28;24420;-55
2021/07/15 04:04:08;;;;;;;2.90;2.70;;;;;;;;;;5082590;28;24423;-55
2021/07/15 04:06:34;;;;;;;2.92;2.72;;;;;;;;;;5098620;28;24453;-54
2021/07/15 04:09:00;;;;;;;3.28;2.85;;;;;;;;;;5100987;28;24446;-54
2021/07/15 04:11:27;;;;;;;3.25;2.95;;;;;;;;;;5081896;28;24411;-55
2021/07/15 04:13:52;;;;;;;3.30;3.10;;;;;;;;;;5068731;28;24468;-54
2021/07/15 04:16:20;;;;;;;3.40;3.20;;;;;;;;;;5079346;28;24410;-55
2021/07/15 04:18:46;;;;;;;4.45;3.00;;;;;;;;;;5094686;28;24508;-55
2021/07/15 04:21:12;;;;;;;3.10;2.90;;;;;;;;;;5095844;28;24505;-54
2021/07/15 04:23:38;;;;;;;3.63;2.90;;;;;;;;;;5090926;28;24417;-55
2021/07/15 04:26:04;;;;;;;3.60;3.30;;;;;;;;;;5095540;28;24452;-55
2021/07/15 04:28:30;;;;;;;2.85;2.67;;;;;;;;;;5079525;28;24431;-54
2021/07/15 04:30:59;;;;;;;3.00;2.80;;;;;;;;;;5079726;28;24526;-54
2021/07/15 04:33:24;;;;;;;2.60;2.40;;;;;;;;;;5075782;28;24410;-55
2021/07/15 04:35:50;;;;;;;3.30;3.10;;;;;;;;;;5073582;28;24449;-55
2021/07/15 04:38:15;;;;;;;2.70;2.50;;;;;;;;;;5086604;28;24497;-55
2021/07/15 04:40:40;;;;;;;3.00;2.80;;;;;;;;;;5094487;28;24402;-55
2021/07/15 04:43:07;;;;;;;3.00;2.80;;;;;;;;;;5094842;28;24964;-55
2021/07/15 04:45:34;;;;;;;2.70;2.60;;;;;;;;;;5085962;28;24485;-55
2021/07/15 04:47:59;;;;;;;3.15;2.90;;;;;;;;;;5089815;28;24437;-55
2021/07/15 04:50:26;;;;;;;3.00;2.80;;;;;;;;;;5095813;28;26049;-55
2021/07/15 04:52:55;;;;;;;2.80;2.60;;;;;;;;;;5092534;27;24429;-54
2021/07/15 04:55:20;;;;;;;2.80;2.60;;;;;;;;;;5097883;28;24433;-55
2021/07/15 04:57:48;;;;;;;2.63;2.53;;;;;;;;;;5083351;28;24418;-55
2021/07/15 05:00:13;;;;;;;2.70;2.50;;;;;;;;;;5067568;28;24410;-55
2021/07/15 05:02:39;;;;;;;2.50;2.40;;;;;;;;;;5072796;28;24421;-55
2021/07/15 05:05:08;;;;;;;2.30;2.20;;;;;;;;;;5088776;27;24395;-55
2021/07/15 05:07:34;;;;;;;3.22;3.03;;;;;;;;;;5080690;28;24514;-55
2021/07/15 05:10:00;;;;;;;3.00;2.80;;;;;;;;;;5071315;28;26073;-55
2021/07/15 05:12:25;;;;;;;2.90;2.70;;;;;;;;;;5076107;28;24566;-55
2021/07/15 05:14:52;;;;;;;3.35;3.05;;;;;;;;;;5070394;28;25398;-55
2021/07/15 05:17:17;;;;;;;2.90;2.70;;;;;;;;;;5078136;28;24878;-55
2021/07/15 05:19:42;;;;;;;2.60;2.40;;;;;;;;;;5082769;28;24956;-55
2021/07/15 05:22:07;;;;;;;2.95;2.75;;;;;;;;;;5081528;28;24457;-55
2021/07/15 05:24:33;;;;;;;2.88;2.67;;;;;;;;;;5073879;28;24422;-55
2021/07/15 05:26:59;;;;;;;3.20;3.00;;;;;;;;;;5081307;28;24421;-55
2021/07/15 05:29:24;;;;;;;2.95;2.75;;;;;;;;;;5085054;28;24820;-55
2021/07/15 05:31:50;;;;;;;3.05;2.85;;;;;;;;;;5084943;28;24994;-55
2021/07/15 05:34:17;;;;;;;2.80;2.60;;;;;;;;;;5087031;28;24429;-56
2021/07/15 05:36:43;;;;;;;2.60;2.40;;;;;;;;;;5087208;28;24962;-55
2021/07/15 05:39:08;;;;;;;2.90;2.50;;;;;;;;;;5086082;28;24414;-55
2021/07/15 05:41:33;;;;;;;2.73;2.50;;;;;;;;;;5087220;28;24874;-55
2021/07/15 05:43:58;;;;;;;2.60;2.40;;;;;;;;;;5087207;28;24412;-55
2021/07/15 05:46:23;;;;;;;5.35;4.95;;;;;;;;;;5086956;28;25167;-55
2021/07/15 05:48:48;;;;;;;1.90;1.80;;;;;;;;;;5083907;28;24769;-56
2021/07/15 05:51:14;;;;;;;2.30;2.20;;;;;;;;;;5087134;28;24815;-56
2021/07/15 05:53:39;;;;;;;2.10;2.00;;;;;;;;;;5074049;28;24509;-55
2021/07/15 05:56:04;;;;;;;2.70;2.50;;;;;;;;;;5066094;28;24461;-55
2021/07/15 05:58:29;;;;;;;2.70;2.50;;;;;;;;;;5081196;28;24417;-55
2021/07/15 06:00:54;;;;;;;2.53;2.33;;;;;;;;;;5086103;28;24748;-56
2021/07/15 06:03:19;;;;;;;2.53;2.30;;;;;;;;;;5074823;28;24745;-55
2021/07/15 06:05:44;;;;;;;2.60;2.40;;;;;;;;;;5078849;28;24418;-56
2021/07/15 06:08:10;;;;;;;2.47;2.28;;;;;;;;;;5082221;28;24871;-56
2021/07/15 06:10:35;;;;;;;2.40;2.20;;;;;;;;;;5081082;28;24517;-56
2021/07/15 06:13:00;;;;;;;2.38;2.00;;;;;;;;;;5083170;28;24994;-56
2021/07/15 06:15:25;;;;;;;2.43;2.33;;;;;;;;;;5087323;28;24418;-55
2021/07/15 06:17:50;;;;;;;2.40;2.30;;;;;;;;;;5086621;28;24507;-55
2021/07/15 06:20:15;;;;;;;2.40;2.20;;;;;;;;;;5088039;28;24429;-55
2021/07/15 06:22:41;;;;;;;2.30;2.20;;;;;;;;;;5088369;28;24403;-56
2021/07/15 06:25:07;;;;;;;2.63;2.43;;;;;;;;;;5099131;28;25040;-56
2021/07/15 06:27:32;;;;;;;2.40;2.30;;;;;;;;;;5087751;28;24471;-55
2021/07/15 06:29:57;;;;;;;2.00;1.90;;;;;;;;;;5088954;28;24426;-56
2021/07/15 06:32:22;;;;;;;2.20;2.10;;;;;;;;;;5089478;28;24855;-56
2021/07/15 06:34:47;;;;;;;2.47;2.27;;;;;;;;;;5085675;28;24418;-56
2021/07/15 06:37:13;;;;;;;2.50;2.30;;;;;;;;;;5080585;28;25034;-56
2021/07/15 06:39:38;;;;;;;2.57;2.47;;;;;;;;;;5065369;28;24468;-56
2021/07/15 06:42:03;;;;;;;2.37;2.10;;;;;;;;;;5066430;28;24480;-56
2021/07/15 06:44:28;;;;;;;2.47;2.28;;;;;;;;;;5080193;28;25106;-56
2021/07/15 06:46:54;;;;;;;2.30;2.10;;;;;;;;;;5070675;28;24414;-56
2021/07/15 06:49:19;;;;;;;2.83;2.63;;;;;;;;;;5075608;28;24498;-57
2021/07/15 06:51:44;;;;;;;2.60;2.40;;;;;;;;;;5071153;28;24406;-56
2021/07/15 06:54:09;;;;;;;2.30;2.10;;;;;;;;;;5069158;28;24442;-56
2021/07/15 06:56:34;;;;;;;2.33;2.22;;;;;;;;;;5068536;28;24449;-56
2021/07/15 06:58:59;;;;;;;2.40;2.20;;;;;;;;;;5077008;28;24426;-56
2021/07/15 07:01:25;;;;;;;2.30;2.20;;;;;;;;;;5075204;28;24463;-56
2021/07/15 07:03:50;;;;;;;2.70;2.50;;;;;;;;;;5085709;28;24513;-56
2021/07/15 07:06:15;;;;;;;2.20;2.10;;;;;;;;;;5072695;28;24951;-55
2021/07/15 07:08:40;;;;;;;2.90;2.70;;;;;;;;;;5067843;28;24418;-56
2021/07/15 07:11:05;;;;;;;2.75;2.55;;;;;;;;;;5066802;28;24403;-56
2021/07/15 07:13:30;;;;;;;2.70;2.50;;;;;;;;;;5067319;28;24776;-56
2021/07/15 07:15:56;;;;;;;2.30;2.10;;;;;;;;;;5081455;28;24970;-56
2021/07/15 07:18:21;;;;;;;2.63;2.30;;;;;;;;;;5071954;28;24511;-56
2021/07/15 07:20:46;;;;;;;2.60;2.50;;;;;;;;;;5066603;28;24391;-56
2021/07/15 07:23:13;;;;;;;2.40;2.30;;;;;;;;;;5074447;28;24952;-56
2021/07/15 07:25:39;;;;;;;2.20;2.10;;;;;;;;;;5069515;28;24986;-57
2021/07/15 07:28:04;;;;;;;2.20;2.10;;;;;;;;;;5072235;28;24430;-56
2021/07/15 07:30:29;;;;;;;2.40;2.30;;;;;;;;;;5099637;28;24448;-55
2021/07/15 07:32:54;;;;;;;2.30;2.10;;;;;;;;;;5104327;28;24971;-56
2021/07/15 07:35:19;;;;;;;2.20;2.10;;;;;;;;;;5093643;28;24521;-55
2021/07/15 07:37:45;;;;;;;2.90;2.70;;;;;;;;;;5085142;28;24410;-56
2021/07/15 07:40:11;;;;;;;2.10;2.00;;;;;;;;;;5101783;28;24571;-56
2021/07/15 07:42:36;;;;;;;2.90;2.60;;;;;;;;;;5087332;28;24689;-56
2021/07/15 07:45:02;;;;;;;2.87;2.60;;;;;;;;;;5100179;28;25022;-56
2021/07/15 07:47:28;;;;;;;2.23;2.13;;;;;;;;;;5105199;28;24433;-56
2021/07/15 07:49:53;;;;;;;2.30;2.10;;;;;;;;;;5092073;28;24456;-56
2021/07/15 07:52:18;;;;;;;2.30;2.20;;;;;;;;;;5106701;28;24467;-56
2021/07/15 07:54:43;;;;;;;2.30;2.10;;;;;;;;;;5103534;28;24503;-56
2021/07/15 07:57:10;;;;;;;2.63;2.45;;;;;;;;;;5100677;28;24843;-56
2021/07/15 07:59:35;;;;;;;2.90;2.60;;;;;;;;;;5082308;28;24438;-57
2021/07/15 08:02:00;;;;;;;2.70;2.50;;;;;;;;;;5085985;28;24449;-56
2021/07/15 08:04:25;;;;;;;2.45;2.35;;;;;;;;;;5085918;28;24392;-56
2021/07/15 08:06:50;;;;;;;2.50;2.40;;;;;;;;;;5085976;28;25069;-56
2021/07/15 08:09:16;;;;;;;2.40;2.30;;;;;;;;;;5086470;28;24402;-56
2021/07/15 08:11:46;;;;;;;2.70;2.60;;;;;;;;;;5084204;28;24425;-56
2021/07/15 08:14:11;;;;;;;2.80;2.50;;;;;;;;;;5085481;28;24444;-56
2021/07/15 08:16:36;;;;;;;2.70;2.60;;;;;;;;;;5088975;28;24477;-56
2021/07/15 08:19:01;;;;;;;2.77;2.57;;;;;;;;;;5106112;28;24518;-56
2021/07/15 08:21:27;;;;;;;2.70;2.50;;;;;;;;;;5082710;27;24580;-56
2021/07/15 08:23:52;;;;;;;3.00;2.80;;;;;;;;;;5092694;28;24512;-56
2021/07/15 08:26:18;;;;;;;2.40;2.30;;;;;;;;;;5104513;28;24428;-56
2021/07/15 08:28:43;;;;;;;2.90;2.80;;;;;;;;;;5108900;28;24385;-56
2021/07/15 08:31:08;;;;;;;2.90;2.70;;;;;;;;;;5094434;28;25342;-57
2021/07/15 08:33:33;;;;;;;2.60;2.50;;;;;;;;;;5065805;28;24402;-56
2021/07/15 08:35:59;;;;;;;3.20;2.63;;;;;;;;;;5067440;28;24425;-56
2021/07/15 08:38:24;;;;;;;2.43;2.23;;;;;;;;;;5067453;28;24401;-56
2021/07/15 08:40:50;;;;;;;2.60;2.50;;;;;;;;;;5067748;28;24393;-56
2021/07/15 08:43:15;;;;;;;3.77;3.20;;;;;;;;;;5085008;28;24624;-56
2021/07/15 08:45:41;;;;;;;3.10;2.90;;;;;;;;;;5088420;28;24402;-56
2021/07/15 08:48:07;;;;;;;3.00;2.80;;;;;;;;;;5088048;28;24464;-55
2021/07/15 08:50:32;;;;;;;3.30;3.10;;;;;;;;;;5088354;28;24455;-56
2021/07/15 08:52:58;;;;;;;2.70;2.50;;;;;;;;;;5085711;28;24963;-56
2021/07/15 08:56:36;;;;;;;3.25;3.05;;;;;;;;;;5088177;28;24406;-56
2021/07/15 08:58:09;;;;;;;3.00;2.80;;;;;;;;;;5087996;28;24487;-56
2021/07/15 09:00:34;;;;;;;2.80;2.70;;;;;;;;;;5087656;28;24390;-56
2021/07/15 09:03:00;;;;;;;3.37;3.17;;;;;;;;;;5086101;28;24471;-56
2021/07/15 09:05:25;;;;;;;3.70;3.40;;;;;;;;;;5087891;28;24509;-56
2021/07/15 09:07:50;;;;;;;2.83;2.73;;;;;;;;;;5087642;28;24389;-56
2021/07/15 09:10:15;;;;;;;3.40;3.20;;;;;;;;;;5087854;28;24436;-56
2021/07/15 09:12:40;;;;;;;3.20;3.00;;;;;;;;;;5087693;28;24416;-56
2021/07/15 09:15:07;;;;;;;3.05;2.85;;;;;;;;;;5085873;28;24955;-56
2021/07/15 09:17:33;;;;;;;3.20;3.00;;;;;;;;;;5087585;28;24414;-56
2021/07/15 09:19:59;;;;;;;4.18;3.78;;;;;;;;;;5087538;28;24378;-56
2021/07/15 09:22:24;;;;;;;3.30;3.10;;;;;;;;;;5087778;28;24734;-57
2021/07/15 09:24:51;;;;;;;3.43;2.83;;;;;;;;;;5085468;28;24521;-56
2021/07/15 09:27:21;;;;;;;3.55;3.25;;;;;;;;;;5087745;28;24932;-56
2021/07/15 09:30:05;;;;;;;4.00;3.80;;;;;;;;;;5087272;28;24406;-56
2021/07/15 09:32:30;;;;;;;3.40;3.20;;;;;;;;;;5087183;28;24409;-56
2021/07/15 09:35:05;;;;;;;3.60;3.30;;;;;;;;;;5085178;28;24441;-56
2021/07/15 09:37:34;;;;;;;4.10;3.90;;;;;;;;;;5087144;28;24464;-55
2021/07/15 09:40:00;;;;;;;4.72;4.32;;;;;;;;;;5086743;28;24402;-56
2021/07/15 09:42:25;;;;;;;4.60;4.30;;;;;;;;;;5087124;28;24389;-56
2021/07/15 09:44:51;;;;;;;3.70;3.50;;;;;;;;;;5085130;28;25036;-56
2021/07/15 09:47:36;;;;;;;4.03;3.83;;;;;;;;;;5087145;28;24393;-56
2021/07/15 09:50:02;;;;;;;4.38;4.18;;;;;;;;;;5086105;28;24425;-56
2021/07/15 09:52:27;;;;;;;4.20;4.00;;;;;;;;;;5087060;28;24402;-56
2021/07/15 09:55:12;;;;;;;3.97;3.77;;;;;;;;;;5086223;28;25047;-56
2021/07/15 09:57:37;;;;;;;4.03;3.83;;;;;;;;;;5087010;28;24462;-56
2021/07/15 10:00:03;;;;;;;4.28;3.88;;;;;;;;;;5086655;28;25201;-56
2021/07/15 10:02:31;;;;;;;4.20;3.90;;;;;;;;;;5087083;28;24752;-56
2021/07/15 10:04:56;;;;;;;3.95;3.75;;;;;;;;;;5086781;28;24397;-57
2021/07/15 10:07:25;;;;;;;4.27;3.97;;;;;;;;;;5085196;28;24422;-56
2021/07/15 10:10:10;;;;;;;3.70;3.50;;;;;;;;;;5086954;28;24459;-56
2021/07/15 10:12:35;;;;;;;4.20;3.90;;;;;;;;;;5086455;28;24452;-56
2021/07/15 10:15:07;;;;;;;4.30;4.00;;;;;;;;;;5086658;28;24414;-57
2021/07/15 10:17:42;;;;;;;4.80;4.50;;;;;;;;;;5085047;28;24426;-56
2021/07/15 10:20:08;;;;;;;4.50;4.20;;;;;;;;;;5086164;28;24406;-56
2021/07/15 10:22:33;;;;;;;4.90;4.60;;;;;;;;;;5086955;28;24417;-56
2021/07/15 10:24:58;;;;;;;4.95;4.60;;;;;;;;;;5086690;28;24398;-55
2021/07/15 10:27:24;;;;;;;4.45;4.15;;;;;;;;;;5085017;28;25038;-56
2021/07/15 10:29:49;;;;;;;4.30;4.10;;;;;;;;;;5086729;28;24436;-56
2021/07/15 10:32:14;;;;;;;4.20;4.00;;;;;;;;;;5086526;28;24441;-55
2021/07/15 10:34:40;;;;;;;4.53;4.13;;;;;;;;;;5086557;28;24517;-56
2021/07/15 10:37:05;;;;;;;4.30;4.10;;;;;;;;;;5085289;28;24811;-57
2021/07/15 10:39:31;;;;;;;4.80;4.60;;;;;;;;;;5085930;28;24414;-56
2021/07/15 10:41:58;;;;;;;4.97;4.57;;;;;;;;;;5086567;28;25164;-56
2021/07/15 10:44:25;;;;;;;5.17;4.77;;;;;;;;;;5086792;28;24414;-55
2021/07/15 10:46:51;;;;;;;4.68;4.40;;;;;;;;;;5086561;28;24486;-55
2021/07/15 10:49:18;;;;;;;4.60;4.30;;;;;;;;;;5084399;28;24471;-55
2021/07/15 10:51:43;;;;;;;5.00;4.70;;;;;;;;;;5086721;28;24391;-55
2021/07/15 10:54:08;;;;;;;5.30;4.90;;;;;;;;;;5086382;28;24482;-55
2021/07/15 10:56:34;;;;;;;4.30;4.10;;;;;;;;;;5086959;28;24413;-55
2021/07/15 10:59:00;;;;;;;4.80;4.50;;;;;;;;;;5084274;28;24422;-55
2021/07/15 11:01:32;;;;;;;4.65;4.45;;;;;;;;;;5088816;28;24504;-55
2021/07/15 11:04:16;;;;;;;4.50;4.20;;;;;;;;;;5089873;28;24386;-55
2021/07/15 11:06:43;;;;;;;5.03;4.72;;;;;;;;;;5090295;28;24390;-55
2021/07/15 11:09:10;;;;;;;5.00;4.70;;;;;;;;;;5088174;28;24439;-55
2021/07/15 11:11:44;;;;;;;4.93;4.63;;;;;;;;;;5089936;28;24389;-55
2021/07/15 11:14:27;;;;;;;5.18;4.88;;;;;;;;;;5089701;28;24425;-56
2021/07/15 11:16:53;;;;;;;5.20;4.90;;;;;;;;;;5089891;28;24418;-55
2021/07/15 11:19:36;;;;;;;4.90;4.60;;;;;;;;;;5088678;28;24444;-55
2021/07/15 11:22:03;;;;;;;5.15;4.82;;;;;;;;;;5069529;28;24481;-55
2021/07/15 11:24:28;;;;;;;4.28;4.07;;;;;;;;;;5069483;28;24393;-56
2021/07/15 11:26:53;;;;;;;5.00;4.70;;;;;;;;;;5069537;28;24410;-56
2021/07/15 11:29:18;;;;;;;4.40;4.20;;;;;;;;;;5069613;28;24394;-56
2021/07/15 11:31:45;;;;;;;4.17;3.97;;;;;;;;;;5084230;28;25002;-56
2021/07/15 11:34:10;;;;;;;5.13;4.82;;;;;;;;;;5089123;28;24414;-56
2021/07/15 11:36:36;;;;;;;4.50;4.20;;;;;;;;;;5089041;28;24940;-56
2021/07/15 11:39:08;;;;;;;4.97;4.68;;;;;;;;;;5089475;28;24453;-55
2021/07/15 11:41:49;;;;;;;5.10;4.70;;;;;;;;;;5088133;28;24415;-56
2021/07/15 11:44:16;;;;;;;4.68;4.38;;;;;;;;;;5088870;28;24588;-55
2021/07/15 11:46:41;;;;;;;4.35;4.05;;;;;;;;;;5089294;28;24394;-56
2021/07/15 11:49:10;;;;;;;4.65;4.25;;;;;;;;;;5089434;28;24531;-55
2021/07/15 11:51:40;;;;;;;5.13;4.72;;;;;;;;;;5086835;28;24903;-56
2021/07/15 11:54:24;;;;;;;4.20;4.00;;;;;;;;;;5088830;28;24773;-55
2021/07/15 11:56:50;;;;;;;4.70;4.40;;;;;;;;;;5088977;28;24387;-56
2021/07/15 11:59:35;;;;;;;4.10;3.80;;;;;;;;;;5088830;28;24394;-56
2021/07/15 12:02:04;;;;;;;4.28;3.97;;;;;;;;;;5083581;28;24529;-56
2021/07/15 12:04:49;;;;;;;3.85;3.65;;;;;;;;;;5083181;28;24931;-56
2021/07/15 12:07:20;;;;;;;4.37;4.10;;;;;;;;;;5086112;28;24573;-56
2021/07/15 12:09:47;;;;;;;4.70;4.40;;;;;;;;;;5085350;28;24426;-55
2021/07/15 12:12:14;;;;;;;4.70;4.30;;;;;;;;;;5067052;28;24430;-55
2021/07/15 12:14:40;;;;;;;3.90;3.70;;;;;;;;;;5079536;28;24933;-55
2021/07/15 12:17:05;;;;;;;4.60;4.30;;;;;;;;;;5065761;28;24586;-56
2021/07/15 12:19:30;;;;;;;5.00;4.70;;;;;;;;;;5065797;28;24972;-56
2021/07/15 12:21:58;;;;;;;4.57;4.28;;;;;;;;;;5073599;28;24956;-56
2021/07/15 12:24:23;;;;;;;4.30;4.03;;;;;;;;;;5083999;28;24413;-56
2021/07/15 12:26:52;;;;;;;4.22;4.03;;;;;;;;;;5085967;28;24406;-56
2021/07/15 12:29:19;;;;;;;4.20;3.90;;;;;;;;;;5085294;28;22349;-55
2021/07/15 12:31:45;;;;;;;4.07;3.87;;;;;;;;;;5081220;28;24414;-55
2021/07/15 12:34:11;;;;;;;3.60;3.40;;;;;;;;;;5090070;28;24426;-57
2021/07/15 12:36:38;;;;;;;3.80;3.60;;;;;;;;;;5079314;28;25326;-56
2021/07/15 12:39:05;;;;;;;3.70;3.50;;;;;;;;;;5087057;28;25272;-55
2021/07/15 12:41:37;;;;;;;4.00;3.80;;;;;;;;;;5083739;28;24409;-57
2021/07/15 12:44:04;;;;;;;3.53;3.33;;;;;;;;;;5083297;28;24423;-56
2021/07/15 12:46:36;;;;;;;3.92;3.72;;;;;;;;;;5086719;28;24499;-55
2021/07/15 12:49:06;;;;;;;4.20;4.00;;;;;;;;;;5098510;28;24738;-56
2021/07/15 12:51:40;;;;;;;4.60;4.20;;;;;;;;;;5094398;28;25051;-56
2021/07/15 12:54:07;;;;;;;3.80;3.60;;;;;;;;;;5079574;28;24461;-57
2021/07/15 12:56:32;;;;;;;4.03;3.80;;;;;;;;;;5068866;28;24406;-56
2021/07/15 12:59:02;;;;;;;4.70;4.40;;;;;;;;;;5091989;28;24444;-56
2021/07/15 13:01:27;;;;;;;4.20;4.00;;;;;;;;;;5097384;28;24978;-56
2021/07/15 13:04:03;;;;;;;4.37;4.07;;;;;;;;;;5087018;28;24425;-56
2021/07/15 13:06:29;;;;;;;4.20;3.90;;;;;;;;;;5091539;28;24410;-56
2021/07/15 13:09:01;;;;;;;4.10;3.70;;;;;;;;;;5103610;28;24559;-56
2021/07/15 13:14:15;;;;;;;4.25;4.05;;;;;;;;;;5097403;28;24535;-55
2021/07/15 13:16:48;;;;;;;4.13;3.92;;;;;;;;;;5087810;28;24494;-57
2021/07/15 13:19:14;;;;;;;4.22;4.03;;;;;;;;;;5077353;28;24463;-55
2021/07/15 13:21:39;;;;;;;3.90;3.70;;;;;;;;;;5067240;28;24434;-55
2021/07/15 13:24:07;;;;;;;4.00;3.80;;;;;;;;;;5069308;28;24896;-55
2021/07/15 13:26:43;;;;;;;4.10;3.80;;;;;;;;;;5079281;28;24417;-55
2021/07/15 13:29:09;;;;;;;4.00;3.70;;;;;;;;;;5074043;28;25179;-55
2021/07/15 13:31:36;;;;;;;4.40;4.20;;;;;;;;;;5069488;28;24422;-55
2021/07/15 13:34:05;;;;;;;4.45;4.18;;;;;;;;;;5083451;28;25007;-55
2021/07/15 13:36:30;;;;;;;4.00;3.70;;;;;;;;;;5088971;28;24417;-55
2021/07/15 13:38:55;;;;;;;4.10;3.90;;;;;;;;;;5080198;28;24430;-55
2021/07/15 13:41:25;;;;;;;3.60;3.40;;;;;;;;;;5079856;28;24979;-55
2021/07/15 13:44:00;;;;;;;3.97;3.78;;;;;;;;;;5082106;28;24404;-55
2021/07/15 13:46:26;;;;;;;3.53;3.33;;;;;;;;;;5087412;28;24422;-55
2021/07/15 13:48:51;;;;;;;3.63;3.47;;;;;;;;;;5074640;28;24411;-56
2021/07/15 13:51:22;;;;;;;4.17;3.97;;;;;;;;;;5078140;28;24409;-55
2021/07/15 13:53:47;;;;;;;4.50;4.20;;;;;;;;;;5084264;28;24439;-55
2021/07/15 13:56:17;;;;;;;4.15;3.95;;;;;;;;;;5070549;28;24480;-55
2021/07/15 13:58:42;;;;;;;4.45;4.15;;;;;;;;;;5064037;28;24533;-55
2021/07/15 14:01:07;;;;;;;4.77;4.57;;;;;;;;;;5068899;28;25023;-56
2021/07/15 14:03:33;;;;;;;4.63;4.38;;;;;;;;;;5083857;28;24468;-56
2021/07/15 14:06:01;;;;;;;4.80;4.50;;;;;;;;;;5084061;28;24530;-55
2021/07/15 14:08:30;;;;;;;4.60;4.30;;;;;;;;;;5079612;28;24437;-56
2021/07/15 14:10:56;;;;;;;5.20;4.90;;;;;;;;;;5083711;28;24433;-55
2021/07/15 14:13:22;;;;;;;4.80;4.50;;;;;;;;;;5075303;28;24476;-56
2021/07/15 14:15:56;;;;;;;5.63;5.28;;;;;;;;;;5068591;28;24525;-55
2021/07/15 14:18:25;;;;;;;4.60;4.40;;;;;;;;;;5082215;28;24502;-55
2021/07/15 14:20:52;;;;;;;5.60;5.20;;;;;;;;;;5100483;28;24555;-56
2021/07/15 14:23:24;;;;;;;5.43;5.13;;;;;;;;;;5092241;28;24411;-56
2021/07/15 14:25:50;;;;;;;4.90;4.60;;;;;;;;;;5086899;28;24394;-56
2021/07/15 14:28:16;;;;;;;5.13;4.80;;;;;;;;;;5086379;28;24414;-55
2021/07/15 14:30:41;;;;;;;5.30;5.00;;;;;;;;;;5088575;28;24402;-56
2021/07/15 14:33:06;;;;;;;5.00;4.70;;;;;;;;;;5075113;28;24446;-55
2021/07/15 14:35:33;;;;;;;5.57;5.17;;;;;;;;;;5096628;28;24472;-55
2021/07/15 14:37:58;;;;;;;4.63;4.32;;;;;;;;;;5101930;28;24410;-55
2021/07/15 14:40:24;;;;;;;4.67;4.47;;;;;;;;;;5090124;28;24397;-55
2021/07/15 14:42:49;;;;;;;4.70;4.40;;;;;;;;;;5088329;28;24429;-54
2021/07/15 14:45:16;;;;;;;4.20;4.00;;;;;;;;;;5090427;28;24413;-55